createdAt,value
2018-11-29T00:02:23.116Z,100885.61
2018-11-29T00:04:49.912Z,100879.72
2018-11-29T00:07:16.681Z,100879.91
2018-11-29T00:09:43.457Z,100887.65
2018-11-29T00:12:10.209Z,100887.84
2018-11-29T00:14:37.007Z,100883.20
2018-11-29T00:17:03.764Z,100884.78
2018-11-29T00:19:30.723Z,100879.91
2018-11-29T00:21:57.691Z,100864.55
2018-11-29T00:24:24.540Z,100863.53
2018-11-29T00:26:51.342Z,100864.45
2018-11-29T00:29:18.177Z,100858.67
2018-11-29T00:31:44.982Z,100861.51
2018-11-29T00:34:11.821Z,100869.06
2018-11-29T00:36:38.614Z,100873.01
2018-11-29T00:39:06.141Z,100873.28
2018-11-29T00:41:32.954Z,100870.17
2018-11-29T00:43:59.770Z,100870.25
2018-11-29T00:46:26.586Z,100861.14
2018-11-29T00:48:53.412Z,100861.31
2018-11-29T00:51:20.222Z,100854.94
2018-11-29T00:53:47.026Z,100861.67
2018-11-29T00:56:13.830Z,100862.59
2018-11-29T00:58:40.646Z,100868.60
2018-11-29T01:01:07.466Z,100865.02
2018-11-29T01:03:34.369Z,100865.58
2018-11-29T01:06:01.166Z,100869.34
2018-11-29T01:08:27.976Z,100863.26
2018-11-29T01:10:54.810Z,100857.73
2018-11-29T01:13:21.616Z,100865.83
2018-11-29T01:15:48.443Z,100861.77
2018-11-29T01:18:15.254Z,100865.17
2018-11-29T01:20:42.093Z,100862.59
2018-11-29T01:23:08.885Z,100855.35
2018-11-29T01:25:35.729Z,100871.26
2018-11-29T01:28:02.533Z,100861.52
2018-11-29T01:30:29.373Z,100865.92
2018-11-29T01:32:56.193Z,100867.77
2018-11-29T01:35:23.009Z,100863.80
2018-11-29T01:37:49.822Z,100861.30
2018-11-29T01:40:21.216Z,100856.52
2018-11-29T01:42:52.265Z,100846.97
2018-11-29T01:45:19.092Z,100847.96
2018-11-29T01:47:45.902Z,100841.80
2018-11-29T01:50:12.725Z,100851.09
2018-11-29T01:52:39.514Z,100845.59
2018-11-29T01:55:07.409Z,100846.42
2018-11-29T01:57:34.262Z,100854.80
2018-11-29T02:00:01.094Z,100849.17
2018-11-29T02:02:27.909Z,100843.64
2018-11-29T02:04:54.754Z,100836.67
2018-11-29T02:07:21.561Z,100837.22
2018-11-29T02:09:48.399Z,100841.92
2018-11-29T02:12:15.206Z,100842.18
2018-11-29T02:14:42.038Z,100839.78
2018-11-29T02:17:08.853Z,100828.27
2018-11-29T02:19:35.681Z,100835.81
2018-11-29T02:22:02.477Z,100835.46
2018-11-29T02:24:29.310Z,100834.89
2018-11-29T02:26:56.110Z,100823.23
2018-11-29T02:29:22.943Z,100817.25
2018-11-29T02:31:49.759Z,100812.56
2018-11-29T02:34:16.589Z,100808.24
2018-11-29T02:36:43.395Z,100808.33
2018-11-29T02:39:10.222Z,100806.47
2018-11-29T02:41:37.031Z,100811.81
2018-11-29T02:44:03.921Z,100799.77
2018-11-29T02:46:30.737Z,100803.23
2018-11-29T02:48:57.616Z,100801.88
2018-11-29T02:51:24.427Z,100796.80
2018-11-29T02:53:51.246Z,100805.53
2018-11-29T02:56:18.064Z,100802.41
2018-11-29T02:58:44.899Z,100799.81
2018-11-29T03:01:11.710Z,100799.99
2018-11-29T03:03:38.545Z,100792.55
2018-11-29T03:06:05.353Z,100787.74
2018-11-29T03:08:32.174Z,100802.45
2018-11-29T03:10:58.959Z,100793.34
2018-11-29T03:13:25.791Z,100784.98
2018-11-29T03:15:52.614Z,100778.46
2018-11-29T03:18:19.415Z,100791.78
2018-11-29T03:20:46.250Z,100797.02
2018-11-29T03:23:13.062Z,100793.58
2018-11-29T03:25:39.906Z,100796.20
2018-11-29T03:28:06.762Z,100799.86
2018-11-29T03:30:33.590Z,100805.74
2018-11-29T03:33:00.454Z,100812.48
2018-11-29T03:35:27.280Z,100813.78
2018-11-29T03:37:54.082Z,100812.41
2018-11-29T03:40:20.909Z,100804.42
2018-11-29T03:42:47.717Z,100804.05
2018-11-29T03:45:15.130Z,100803.63
2018-11-29T03:47:41.947Z,100802.81
2018-11-29T03:50:10.861Z,100795.48
2018-11-29T03:52:37.711Z,100797.81
2018-11-29T03:55:05.666Z,100802.63
2018-11-29T03:57:32.467Z,100801.67
2018-11-29T03:59:59.294Z,100804.55
2018-11-29T04:02:26.094Z,100795.72
2018-11-29T04:04:52.919Z,100799.37
2018-11-29T04:07:19.715Z,100802.78
2018-11-29T04:09:46.553Z,100793.06
2018-11-29T04:12:13.385Z,100798.28
2018-11-29T04:14:40.202Z,100788.75
2018-11-29T04:17:07.001Z,100795.17
2018-11-29T04:19:33.836Z,100791.77
2018-11-29T04:22:00.625Z,100786.16
2018-11-29T04:24:27.461Z,100788.84
2018-11-29T04:26:54.255Z,100780.07
2018-11-29T04:29:21.071Z,100782.50
2018-11-29T04:31:47.882Z,100770.30
2018-11-29T04:34:14.690Z,100776.27
2018-11-29T04:36:41.497Z,100764.44
2018-11-29T04:39:08.366Z,100750.45
2018-11-29T04:41:35.199Z,100743.56
2018-11-29T04:44:02.107Z,100734.09
2018-11-29T04:46:45.918Z,100731.92
2018-11-29T04:49:12.755Z,100723.50
2018-11-29T04:51:39.603Z,100721.28
2018-11-29T04:54:07.075Z,100720.38
2018-11-29T04:56:33.956Z,100716.09
2018-11-29T04:59:00.729Z,100717.39
2018-11-29T05:01:27.561Z,100717.62
2018-11-29T05:03:54.371Z,100709.49
2018-11-29T05:06:21.197Z,100725.30
2018-11-29T05:08:47.979Z,100726.22
2018-11-29T05:11:14.793Z,100722.19
2018-11-29T05:13:41.597Z,100714.42
2018-11-29T05:16:08.423Z,100720.00
2018-11-29T05:18:35.237Z,100712.06
2018-11-29T05:21:02.109Z,100705.81
2018-11-29T05:23:28.914Z,100706.64
2018-11-29T05:25:55.829Z,100693.23
2018-11-29T05:28:22.646Z,100696.73
2018-11-29T05:30:49.481Z,100692.95
2018-11-29T05:33:16.342Z,100687.27
2018-11-29T05:35:43.170Z,100693.85
2018-11-29T05:38:09.975Z,100688.61
2018-11-29T05:40:36.810Z,100691.95
2018-11-29T05:43:03.986Z,100703.22
2018-11-29T05:45:30.815Z,100699.67
2018-11-29T05:47:57.618Z,100698.53
2018-11-29T05:50:24.438Z,100690.47
2018-11-29T05:52:51.237Z,100692.95
2018-11-29T05:55:18.101Z,100699.85
2018-11-29T05:57:44.852Z,100699.72
2018-11-29T06:00:12.717Z,100690.50
2018-11-29T06:02:39.517Z,100685.86
2018-11-29T06:05:08.957Z,100694.64
2018-11-29T06:07:35.789Z,100688.37
2018-11-29T06:10:02.592Z,100690.02
2018-11-29T06:12:29.414Z,100690.45
2018-11-29T06:14:56.217Z,100687.61
2018-11-29T06:17:23.061Z,100681.33
2018-11-29T06:19:49.873Z,100674.07
2018-11-29T06:22:16.719Z,100675.66
2018-11-29T06:24:43.521Z,100665.20
2018-11-29T06:27:10.345Z,100673.70
2018-11-29T06:29:37.188Z,100674.44
2018-11-29T06:32:04.414Z,100675.71
2018-11-29T06:34:31.181Z,100672.91
2018-11-29T06:36:57.974Z,100665.39
2018-11-29T06:39:24.732Z,100669.96
2018-11-29T06:41:51.529Z,100673.94
2018-11-29T06:44:18.303Z,100677.09
2018-11-29T06:46:45.084Z,100687.95
2018-11-29T06:49:11.842Z,100675.06
2018-11-29T06:51:38.692Z,100669.73
2018-11-29T06:54:05.509Z,100669.28
2018-11-29T06:56:32.297Z,100672.77
2018-11-29T06:58:59.088Z,100661.03
2018-11-29T07:01:25.876Z,100661.48
2018-11-29T07:03:52.641Z,100658.35
2018-11-29T07:06:19.436Z,100671.45
2018-11-29T07:08:46.192Z,100671.77
2018-11-29T07:11:12.973Z,100667.16
2018-11-29T07:13:39.732Z,100669.93
2018-11-29T07:16:06.538Z,100667.45
2018-11-29T07:18:33.368Z,100671.77
2018-11-29T07:21:11.716Z,100672.38
2018-11-29T07:23:38.496Z,100663.14
2018-11-29T07:26:05.556Z,100661.28
2018-11-29T07:28:32.337Z,100649.81
2018-11-29T07:30:59.100Z,100649.45
2018-11-29T07:33:25.893Z,100646.73
2018-11-29T07:35:52.660Z,100643.42
2018-11-29T07:38:19.457Z,100639.30
2018-11-29T07:40:46.228Z,100630.37
2018-11-29T07:43:13.016Z,100635.94
2018-11-29T07:45:39.797Z,100628.96
2018-11-29T07:48:06.608Z,100639.83
2018-11-29T07:50:33.397Z,100643.86
2018-11-29T07:53:00.195Z,100643.34
2018-11-29T07:55:26.960Z,100640.69
2018-11-29T07:57:53.766Z,100636.38
2018-11-29T08:00:20.577Z,100631.80
2018-11-29T08:02:47.357Z,100625.83
2018-11-29T08:05:14.610Z,100624.81
2018-11-29T08:07:47.313Z,100630.49
2018-11-29T08:10:11.334Z,100640.06
2018-11-29T08:12:38.133Z,100625.36
2018-11-29T08:15:07.384Z,100621.60
2018-11-29T08:17:34.185Z,100620.80
2018-11-29T08:20:00.953Z,100608.11
2018-11-29T08:22:27.737Z,100618.59
2018-11-29T08:24:54.542Z,100614.35
2018-11-29T08:27:21.293Z,100621.88
2018-11-29T08:29:48.073Z,100618.95
2018-11-29T08:32:14.873Z,100622.98
2018-11-29T08:34:41.673Z,100633.01
2018-11-29T08:37:08.456Z,100638.41
2018-11-29T08:39:35.225Z,100635.30
2018-11-29T08:42:02.001Z,100630.95
2018-11-29T08:44:28.776Z,100629.77
2018-11-29T08:46:55.569Z,100633.52
2018-11-29T08:49:22.353Z,100634.34
2018-11-29T08:51:49.145Z,100627.53
2018-11-29T08:54:15.901Z,100624.56
2018-11-29T08:56:42.692Z,100622.81
2018-11-29T08:59:09.457Z,100617.09
2018-11-29T09:01:36.254Z,100608.16
2018-11-29T09:04:03.017Z,100603.40
2018-11-29T09:06:29.793Z,100594.25
2018-11-29T09:08:56.572Z,100602.98
2018-11-29T09:11:23.333Z,100598.03
2018-11-29T09:13:50.121Z,100604.59
2018-11-29T09:16:16.892Z,100603.88
2018-11-29T09:18:43.685Z,100601.68
2018-11-29T09:21:10.453Z,100607.65
2018-11-29T09:23:37.354Z,100611.29
2018-11-29T09:26:04.485Z,100604.73
2018-11-29T09:28:31.277Z,100592.77
2018-11-29T09:30:58.046Z,100598.47
2018-11-29T09:33:24.844Z,100583.30
2018-11-29T09:35:51.624Z,100578.09
2018-11-29T09:38:18.402Z,100583.77
2018-11-29T09:40:45.185Z,100583.45
2018-11-29T09:43:11.976Z,100589.42
2018-11-29T09:45:38.756Z,100600.28
2018-11-29T09:48:05.608Z,100603.11
2018-11-29T09:50:32.372Z,100601.49
2018-11-29T09:52:59.156Z,100592.92
2018-11-29T09:55:25.936Z,100591.64
2018-11-29T09:57:52.734Z,100592.11
2018-11-29T10:00:27.887Z,100584.84
2018-11-29T10:02:53.917Z,100582.34
2018-11-29T10:05:20.700Z,100576.73
2018-11-29T10:07:47.493Z,100577.25
2018-11-29T10:10:14.276Z,100578.91
2018-11-29T10:12:41.077Z,100582.20
2018-11-29T10:15:10.753Z,100597.28
2018-11-29T10:17:37.593Z,100591.16
2018-11-29T10:20:13.476Z,100582.34
2018-11-29T10:22:41.128Z,100591.52
2018-11-29T10:25:11.844Z,100583.48
2018-11-29T10:27:38.765Z,100592.17
2018-11-29T10:30:10.253Z,100578.45
2018-11-29T10:32:37.021Z,100578.12
2018-11-29T10:35:04.029Z,100572.97
2018-11-29T10:37:30.800Z,100569.86
2018-11-29T10:39:57.581Z,100569.63
2018-11-29T10:42:24.369Z,100569.16
2018-11-29T10:44:51.153Z,100564.69
2018-11-29T10:47:17.924Z,100563.85
2018-11-29T10:49:44.725Z,100565.51
2018-11-29T10:52:11.488Z,100560.81
2018-11-29T10:54:38.277Z,100556.50
2018-11-29T10:57:05.804Z,100554.79
2018-11-29T10:59:32.607Z,100551.61
2018-11-29T11:02:20.155Z,100549.41
2018-11-29T11:04:46.845Z,100537.92
2018-11-29T11:07:13.621Z,100529.55
2018-11-29T11:09:40.410Z,100538.25
2018-11-29T11:12:07.191Z,100534.16
2018-11-29T11:14:33.993Z,100536.13
2018-11-29T11:17:00.762Z,100536.05
2018-11-29T11:19:27.556Z,100545.59
2018-11-29T11:21:54.334Z,100540.98
2018-11-29T11:24:21.117Z,100530.19
2018-11-29T11:26:47.888Z,100529.80
2018-11-29T11:29:14.705Z,100532.88
2018-11-29T11:31:41.498Z,100523.33
2018-11-29T11:34:08.285Z,100529.11
2018-11-29T11:36:35.049Z,100519.42
2018-11-29T11:39:01.833Z,100516.48
2018-11-29T11:41:28.605Z,100520.27
2018-11-29T11:43:55.418Z,100516.52
2018-11-29T11:46:22.165Z,100521.53
2018-11-29T11:48:48.964Z,100519.69
2018-11-29T11:51:15.840Z,100520.86
2018-11-29T11:53:42.626Z,100520.30
2018-11-29T11:56:09.396Z,100514.14
2018-11-29T11:58:36.270Z,100512.75
2018-11-29T12:01:03.076Z,100510.41
2018-11-29T12:03:29.841Z,100509.35
2018-11-29T12:05:56.661Z,100504.53
2018-11-29T12:08:23.536Z,100505.33
2018-11-29T12:10:50.374Z,100505.22
2018-11-29T12:13:17.176Z,100492.15
2018-11-29T12:15:43.928Z,100490.89
2018-11-29T12:18:11.877Z,100480.48
2018-11-29T12:20:38.730Z,100484.47
2018-11-29T12:23:06.289Z,100486.96
2018-11-29T12:25:33.077Z,100475.20
2018-11-29T12:27:59.874Z,100469.67
2018-11-29T12:30:30.621Z,100464.42
2018-11-29T12:33:01.541Z,100465.56
2018-11-29T12:35:28.361Z,100446.34
2018-11-29T12:37:55.132Z,100435.41
2018-11-29T12:40:21.941Z,100425.31
2018-11-29T12:42:48.712Z,100421.00
2018-11-29T12:45:15.509Z,100412.64
2018-11-29T12:47:42.642Z,100406.27
2018-11-29T12:50:26.901Z,100384.27
2018-11-29T12:52:53.713Z,100395.03
2018-11-29T12:55:21.693Z,100391.48
2018-11-29T12:58:04.347Z,100395.31
2018-11-29T13:00:20.289Z,100383.24
2018-11-29T13:02:57.338Z,100388.30
2018-11-29T13:05:24.729Z,100388.52
2018-11-29T13:07:51.503Z,100370.84
2018-11-29T13:10:19.961Z,100374.38
2018-11-29T13:12:46.737Z,100366.11
2018-11-29T13:15:16.442Z,100371.25
2018-11-29T13:17:43.192Z,100371.55
2018-11-29T13:20:11.108Z,100362.58
2018-11-29T13:22:37.893Z,100367.41
2018-11-29T13:25:07.365Z,100337.76
2018-11-29T13:27:34.125Z,100335.68
2018-11-29T13:30:00.914Z,100341.08
2018-11-29T13:32:27.692Z,100341.64
2018-11-29T13:34:54.457Z,100348.33
2018-11-29T13:37:21.310Z,100313.59
2018-11-29T13:39:48.029Z,100322.70
2018-11-29T13:42:14.822Z,100382.20
2018-11-29T13:44:41.586Z,100393.76
2018-11-29T13:47:08.365Z,100392.47
2018-11-29T13:49:35.132Z,100376.27
2018-11-29T13:52:02.033Z,100352.18
2018-11-29T13:54:28.692Z,100363.46
2018-11-29T13:56:55.480Z,100338.66
2018-11-29T13:59:22.241Z,100309.12
2018-11-29T14:01:49.028Z,100326.39
2018-11-29T14:04:15.796Z,100311.36
2018-11-29T14:06:42.577Z,100301.14
2018-11-29T14:09:09.517Z,100320.91
2018-11-29T14:11:36.250Z,100352.38
2018-11-29T14:14:03.068Z,100332.03
2018-11-29T14:16:29.937Z,100292.58
2018-11-29T14:18:56.696Z,100301.91
2018-11-29T14:21:23.540Z,100330.14
2018-11-29T14:23:50.369Z,100330.66
2018-11-29T14:26:17.233Z,100316.46
2018-11-29T14:28:44.010Z,100310.97
2018-11-29T14:31:10.788Z,100324.63
2018-11-29T14:33:37.564Z,100319.07
2018-11-29T14:36:04.366Z,100307.34
2018-11-29T14:38:31.124Z,100299.92
2018-11-29T14:40:57.973Z,100307.35
2018-11-29T14:43:24.728Z,100305.82
2018-11-29T14:45:51.508Z,100304.18
2018-11-29T14:48:18.377Z,100307.75
2018-11-29T14:50:45.814Z,100305.42
2018-11-29T14:53:12.585Z,100304.13
2018-11-29T14:55:39.716Z,100305.31
2018-11-29T14:58:07.808Z,100319.27
2018-11-29T15:00:34.843Z,100327.94
2018-11-29T15:03:03.933Z,100328.41
2018-11-29T15:05:31.207Z,100311.00
2018-11-29T15:07:58.090Z,100298.13
2018-11-29T15:10:24.880Z,100302.71
2018-11-29T15:12:51.684Z,100308.46
2018-11-29T15:15:18.558Z,100312.70
2018-11-29T15:17:46.108Z,100308.95
2018-11-29T15:20:16.720Z,100305.07
2018-11-29T15:22:43.751Z,100306.71
2018-11-29T15:25:10.496Z,100304.46
2018-11-29T15:27:37.290Z,100308.95
2018-11-29T15:30:09.936Z,100305.06
2018-11-29T15:32:36.713Z,100296.77
2018-11-29T15:35:04.224Z,100298.36
2018-11-29T15:37:31.011Z,100299.30
2018-11-29T15:39:57.769Z,100299.06
2018-11-29T15:42:24.585Z,100294.27
2018-11-29T15:44:51.429Z,100293.44
2018-11-29T15:47:18.229Z,100291.16
2018-11-29T15:49:45.012Z,100277.45
2018-11-29T15:52:11.807Z,100282.48
2018-11-29T15:54:38.593Z,100284.14
2018-11-29T15:57:05.373Z,100278.84
2018-11-29T15:59:32.132Z,100269.77
2018-11-29T16:01:58.892Z,100276.38
2018-11-29T16:04:25.766Z,100275.68
2018-11-29T16:06:52.540Z,100264.77
2018-11-29T16:09:19.361Z,100257.05
2018-11-29T16:11:46.127Z,100241.67
2018-11-29T16:14:13.064Z,100238.36
2018-11-29T16:16:39.828Z,100240.94
2018-11-29T16:19:06.660Z,100235.18
2018-11-29T16:21:33.426Z,100229.44
2018-11-29T16:24:00.210Z,100239.98
2018-11-29T16:26:27.040Z,100245.76
2018-11-29T16:28:53.836Z,100261.48
2018-11-29T16:31:20.608Z,100263.45
2018-11-29T16:33:47.388Z,100264.01
2018-11-29T16:36:14.157Z,100261.02
2018-11-29T16:38:40.958Z,100261.88
2018-11-29T16:41:07.724Z,100253.91
2018-11-29T16:43:34.517Z,100255.38
2018-11-29T16:46:01.269Z,100264.83
2018-11-29T16:48:28.061Z,100261.63
2018-11-29T16:50:54.841Z,100249.55
2018-11-29T16:53:21.625Z,100246.67
2018-11-29T16:55:48.462Z,100258.55
2018-11-29T16:58:17.817Z,100251.61
2018-11-29T17:00:44.573Z,100247.75
2018-11-29T17:03:11.376Z,100249.95
2018-11-29T17:05:38.144Z,100248.72
2018-11-29T17:08:05.393Z,100258.52
2018-11-29T17:10:32.165Z,100264.27
2018-11-29T17:13:00.465Z,100270.98
2018-11-29T17:15:27.228Z,100264.39
2018-11-29T17:17:54.008Z,100262.64
2018-11-29T17:20:20.786Z,100268.70
2018-11-29T17:22:48.668Z,100258.21
2018-11-29T17:25:15.472Z,100260.60
2018-11-29T17:27:42.228Z,100269.23
2018-11-29T17:30:12.713Z,100271.15
2018-11-29T17:32:39.573Z,100264.75
2018-11-29T17:35:06.457Z,100262.17
2018-11-29T17:37:33.221Z,100268.04
2018-11-29T17:40:00.073Z,100261.83
2018-11-29T17:42:26.837Z,100263.87
2018-11-29T17:44:53.609Z,100266.45
2018-11-29T17:47:20.412Z,100266.96
2018-11-29T17:49:47.235Z,100259.83
2018-11-29T17:52:14.021Z,100245.30
2018-11-29T17:54:40.809Z,100247.88
2018-11-29T17:57:07.585Z,100253.45
2018-11-29T17:59:34.380Z,100250.16
2018-11-29T18:02:01.149Z,100253.06
2018-11-29T18:04:28.047Z,100257.33
2018-11-29T18:06:54.819Z,100263.94
2018-11-29T18:09:21.616Z,100261.81
2018-11-29T18:11:48.388Z,100264.89
2018-11-29T18:14:15.175Z,100261.14
2018-11-29T18:16:41.949Z,100259.84
2018-11-29T18:19:13.167Z,100260.77
2018-11-29T18:21:35.554Z,100266.85
2018-11-29T18:24:02.364Z,100266.80
2018-11-29T18:26:29.140Z,100272.76
2018-11-29T18:28:55.932Z,100272.77
2018-11-29T18:31:22.688Z,100258.02
2018-11-29T18:33:49.480Z,100261.30
2018-11-29T18:36:16.382Z,100260.85
2018-11-29T18:38:43.226Z,100258.45
2018-11-29T18:41:09.868Z,100257.27
2018-11-29T18:43:36.781Z,100260.98
2018-11-29T18:46:03.888Z,100260.73
2018-11-29T18:48:30.645Z,100259.81
2018-11-29T18:50:57.428Z,100256.78
2018-11-29T18:53:24.204Z,100259.84
2018-11-29T18:55:51.049Z,100257.66
2018-11-29T18:58:18.024Z,100255.69
2018-11-29T19:00:44.850Z,100263.77
2018-11-29T19:03:11.608Z,100261.91
2018-11-29T19:05:38.416Z,100263.53
2018-11-29T19:08:07.085Z,100257.84
2018-11-29T19:10:33.966Z,100249.55
2018-11-29T19:13:01.997Z,100246.25
2018-11-29T19:15:28.785Z,100240.63
2018-11-29T19:17:55.586Z,100237.28
2018-11-29T19:20:22.364Z,100250.29
2018-11-29T19:22:49.133Z,100250.59
2018-11-29T19:25:16.841Z,100251.30
2018-11-29T19:27:43.598Z,100256.52
2018-11-29T19:30:13.748Z,100252.45
2018-11-29T19:32:40.513Z,100256.16
2018-11-29T19:35:08.214Z,100257.73
2018-11-29T19:37:35.053Z,100266.94
2018-11-29T19:40:01.874Z,100266.84
2018-11-29T19:42:28.627Z,100262.61
2018-11-29T19:44:55.421Z,100264.63
2018-11-29T19:47:22.214Z,100259.70
2018-11-29T19:49:49.017Z,100267.06
2018-11-29T19:52:15.793Z,100268.70
2018-11-29T19:54:42.573Z,100275.54
2018-11-29T19:57:09.333Z,100273.89
2018-11-29T19:59:36.187Z,100270.16
2018-11-29T20:02:02.985Z,100272.41
2018-11-29T20:04:29.746Z,100273.23
2018-11-29T20:06:56.540Z,100273.42
2018-11-29T20:09:23.304Z,100273.03
2018-11-29T20:11:50.080Z,100280.53
2018-11-29T20:14:16.856Z,100280.32
2018-11-29T20:16:43.642Z,100278.11
2018-11-29T20:19:10.409Z,100272.61
2018-11-29T20:21:37.237Z,100273.14
2018-11-29T20:24:04.260Z,100273.47
2018-11-29T20:26:31.044Z,100278.67
2018-11-29T20:28:57.808Z,100274.96
2018-11-29T20:31:24.593Z,100269.38
2018-11-29T20:33:51.377Z,100278.21
2018-11-29T20:36:18.171Z,100276.37
2018-11-29T20:38:44.932Z,100276.31
2018-11-29T20:41:11.717Z,100270.41
2018-11-29T20:43:38.496Z,100272.66
2018-11-29T20:46:05.545Z,100272.71
2018-11-29T20:48:32.336Z,100268.50
2018-11-29T20:50:59.560Z,100261.52
2018-11-29T20:53:32.184Z,100266.15
2018-11-29T20:55:58.972Z,100262.99
2018-11-29T20:58:25.817Z,100272.02
2018-11-29T21:00:52.573Z,100263.55
2018-11-29T21:03:19.352Z,100259.34
2018-11-29T21:05:46.125Z,100250.11
2018-11-29T21:08:12.941Z,100251.58
2018-11-29T21:10:39.733Z,100254.77
2018-11-29T21:13:07.408Z,100251.97
2018-11-29T21:15:37.209Z,100246.97
2018-11-29T21:18:04.392Z,100251.94
2018-11-29T21:20:31.153Z,100237.75
2018-11-29T21:22:58.494Z,100233.04
2018-11-29T21:25:25.341Z,100243.44
2018-11-29T21:27:52.120Z,100230.07
2018-11-29T21:30:18.867Z,100243.75
2018-11-29T21:32:45.736Z,100228.06
2018-11-29T21:35:13.704Z,100230.29
2018-11-29T21:37:40.512Z,100216.67
2018-11-29T21:40:11.185Z,100220.73
2018-11-29T21:42:37.965Z,100215.52
2018-11-29T21:45:04.752Z,100206.24
2018-11-29T21:47:31.525Z,100215.97
2018-11-29T21:49:58.325Z,100204.44
2018-11-29T21:52:25.080Z,100202.11
2018-11-29T21:54:51.864Z,100213.86
2018-11-29T21:57:18.629Z,100209.97
2018-11-29T21:59:45.460Z,100208.73
2018-11-29T22:02:12.222Z,100205.25
2018-11-29T22:04:38.993Z,100202.20
2018-11-29T22:07:05.756Z,100207.03
2018-11-29T22:09:32.532Z,100213.42
2018-11-29T22:11:59.293Z,100215.71
2018-11-29T22:14:26.081Z,100214.59
2018-11-29T22:16:52.845Z,100220.66
2018-11-29T22:19:19.609Z,100221.48
2018-11-29T22:21:46.373Z,100224.50
2018-11-29T22:24:13.169Z,100215.81
2018-11-29T22:26:40.009Z,100216.89
2018-11-29T22:29:06.760Z,100214.52
2018-11-29T22:31:33.528Z,100205.68
2018-11-29T22:34:00.312Z,100201.03
2018-11-29T22:36:27.068Z,100195.73
2018-11-29T22:38:53.853Z,100196.89
2018-11-29T22:41:20.617Z,100190.86
2018-11-29T22:43:47.441Z,100198.27
2018-11-29T22:46:14.208Z,100201.30
2018-11-29T22:48:40.985Z,100209.48
2018-11-29T22:51:07.796Z,100210.86
2018-11-29T22:53:34.586Z,100217.47
2018-11-29T22:56:01.407Z,100208.39
2018-11-29T22:58:28.227Z,100201.17
2018-11-29T23:00:55.015Z,100195.10
2018-11-29T23:03:21.737Z,100188.51
2018-11-29T23:05:48.546Z,100200.34
2018-11-29T23:08:15.305Z,100201.70
2018-11-29T23:10:42.088Z,100215.88
2018-11-29T23:13:08.853Z,100228.34
2018-11-29T23:15:35.672Z,100224.44
2018-11-29T23:18:02.437Z,100229.27
2018-11-29T23:20:29.220Z,100224.41
2018-11-29T23:22:56.011Z,100219.30
2018-11-29T23:25:22.780Z,100210.81
2018-11-29T23:27:49.630Z,100208.68
2018-11-29T23:30:16.771Z,100211.88
2018-11-29T23:32:43.717Z,100219.95
2018-11-29T23:35:11.356Z,100217.90
2018-11-29T23:37:38.116Z,100222.97
2018-11-29T23:40:07.192Z,100227.31
2018-11-29T23:42:33.957Z,100222.71
2018-11-29T23:45:00.753Z,100224.17
2018-11-29T23:47:27.517Z,100215.78
2018-11-29T23:49:54.277Z,100212.05
2018-11-29T23:52:21.028Z,100213.53
2018-11-29T23:54:47.828Z,100216.13
2018-11-29T23:57:14.595Z,100213.83
2018-11-29T23:59:41.361Z,100210.53
